createdAt,value
2018-07-28T00:00:00.619Z,993.02
2018-07-28T00:01:10.700Z,993
2018-07-28T00:02:20.522Z,993.01
2018-07-28T00:03:30.611Z,992.99
2018-07-28T00:04:40.686Z,993.01
2018-07-28T00:05:50.513Z,992.91
2018-07-28T00:07:00.061Z,992.96
2018-07-28T00:08:10.152Z,992.98
2018-07-28T00:09:20.227Z,992.97
2018-07-28T00:10:30.275Z,992.97
2018-07-28T00:11:40.387Z,992.91
2018-07-28T00:12:50.473Z,992.94
2018-07-28T00:14:00.557Z,992.87
2018-07-28T00:15:10.631Z,992.86
2018-07-28T00:16:20.453Z,992.83
2018-07-28T00:17:30.524Z,992.85
2018-07-28T00:18:40.692Z,992.83
2018-07-28T00:19:50.749Z,992.85
2018-07-28T00:21:00.828Z,992.85
2018-07-28T00:22:10.906Z,992.82
2018-07-28T00:23:20.781Z,992.83
2018-07-28T00:24:30.875Z,992.82
2018-07-28T00:25:40.939Z,992.81
2018-07-28T00:26:51.023Z,992.82
2018-07-28T00:28:01.095Z,992.86
2018-07-28T00:29:10.661Z,992.88
2018-07-28T00:30:20.733Z,992.89
2018-07-28T00:31:30.546Z,992.9
2018-07-28T00:32:40.616Z,992.94
2018-07-28T00:33:50.699Z,992.96
2018-07-28T00:35:00.840Z,992.93
2018-07-28T00:36:10.923Z,992.94
2018-07-28T00:37:21.015Z,992.95
2018-07-28T00:38:31.121Z,992.96
2018-07-28T00:39:40.937Z,992.94
2018-07-28T00:40:50.742Z,992.93
2018-07-28T00:42:00.556Z,992.94
2018-07-28T00:43:10.644Z,992.91
2018-07-28T00:44:20.721Z,992.89
2018-07-28T00:45:30.796Z,992.89
2018-07-28T00:46:40.858Z,992.85
2018-07-28T00:47:50.933Z,992.83
2018-07-28T00:49:01.026Z,992.81
2018-07-28T00:50:11.125Z,992.79
2018-07-28T00:51:21.244Z,992.79
2018-07-28T00:52:31.328Z,992.82
2018-07-28T00:53:41.403Z,992.81
2018-07-28T00:54:51.481Z,992.79
2018-07-28T00:56:01.337Z,992.78
2018-07-28T00:57:11.174Z,992.78
2018-07-28T00:58:21.020Z,992.72
2018-07-28T00:59:31.101Z,992.74
2018-07-28T01:00:41.178Z,992.72
2018-07-28T01:01:51.265Z,992.69
2018-07-28T01:03:01.334Z,992.67
2018-07-28T01:04:11.410Z,992.64
2018-07-28T01:05:21.223Z,992.66
2018-07-28T01:06:31.292Z,992.67
2018-07-28T01:07:41.364Z,992.7
2018-07-28T01:08:50.902Z,992.65
2018-07-28T01:10:01.018Z,992.66
2018-07-28T01:11:11.096Z,992.68
2018-07-28T01:12:21.160Z,992.69
2018-07-28T01:13:31.223Z,992.7
2018-07-28T01:14:41.043Z,992.67
2018-07-28T01:15:51.106Z,992.71
2018-07-28T01:17:01.190Z,992.71
2018-07-28T01:18:11.001Z,992.73
2018-07-28T01:19:20.809Z,992.75
2018-07-28T01:20:30.878Z,992.76
2018-07-28T01:21:40.965Z,992.67
2018-07-28T01:22:50.507Z,992.74
2018-07-28T01:24:00.341Z,992.71
2018-07-28T01:25:10.198Z,992.73
2018-07-28T01:26:20.296Z,992.72
2018-07-28T01:27:30.408Z,992.71
2018-07-28T01:28:40.227Z,992.68
2018-07-28T01:29:50.033Z,992.69
2018-07-28T01:30:59.838Z,992.67
2018-07-28T01:32:09.649Z,992.63
2018-07-28T01:33:19.775Z,992.63
2018-07-28T01:34:29.845Z,992.61
2018-07-28T01:35:39.901Z,992.59
2018-07-28T01:36:49.737Z,992.6
2018-07-28T01:37:59.811Z,992.57
2018-07-28T01:39:09.645Z,992.57
2018-07-28T01:40:19.449Z,992.57
2018-07-28T01:41:29.536Z,992.56
2018-07-28T01:42:39.345Z,992.53
2018-07-28T01:43:49.433Z,992.51
2018-07-28T01:44:59.513Z,992.49
2018-07-28T01:46:09.330Z,992.47
2018-07-28T01:47:19.404Z,992.41
2018-07-28T01:48:29.210Z,992.46
2018-07-28T01:49:39.273Z,992.45
2018-07-28T01:50:49.356Z,992.41
2018-07-28T01:51:59.436Z,992.48
2018-07-28T01:53:09.513Z,992.51
2018-07-28T01:54:19.336Z,992.5
2018-07-28T01:55:29.400Z,992.46
2018-07-28T01:56:39.518Z,992.45
2018-07-28T01:57:49.581Z,992.45
2018-07-28T01:58:59.410Z,992.42
2018-07-28T02:00:08.959Z,992.44
2018-07-28T02:01:19.031Z,992.42
2018-07-28T02:02:29.108Z,992.39
2018-07-28T02:03:38.928Z,992.37
2018-07-28T02:04:48.469Z,992.38
2018-07-28T02:05:58.282Z,992.35
2018-07-28T02:07:08.381Z,992.28
2018-07-28T02:08:18.444Z,992.31
2018-07-28T02:09:28.509Z,992.3
2018-07-28T02:10:38.319Z,992.3
2018-07-28T02:11:48.115Z,992.29
2018-07-28T02:12:58.178Z,992.29
2018-07-28T02:14:08.255Z,992.25
2018-07-28T02:15:18.326Z,992.27
2018-07-28T02:16:28.402Z,992.24
2018-07-28T02:17:38.218Z,992.22
2018-07-28T02:18:48.024Z,992.22
2018-07-28T02:19:58.104Z,992.24
2018-07-28T02:21:07.910Z,992.21
2018-07-28T02:22:17.707Z,992.22
2018-07-28T02:23:27.531Z,992.23
2018-07-28T02:24:37.622Z,992.21
2018-07-28T02:25:47.436Z,992.3
2018-07-28T02:26:57.251Z,992.25
2018-07-28T02:28:07.317Z,992.25
2018-07-28T02:29:17.374Z,992.26
2018-07-28T02:30:27.452Z,992.27
2018-07-28T02:31:37.259Z,992.28
2018-07-28T02:32:47.350Z,992.27
2018-07-28T02:33:57.436Z,992.3
2018-07-28T02:35:07.526Z,992.33
2018-07-28T02:36:17.620Z,992.32
2018-07-28T02:37:27.442Z,992.31
2018-07-28T02:38:37.265Z,992.31
2018-07-28T02:39:47.341Z,992.27
2018-07-28T02:40:57.429Z,992.25
2018-07-28T02:42:07.268Z,992.26
2018-07-28T02:43:17.083Z,992.26
2018-07-28T02:44:26.895Z,992.27
2018-07-28T02:45:36.702Z,992.25
2018-07-28T02:46:46.795Z,992.3
2018-07-28T02:47:56.638Z,992.34
2018-07-28T02:49:06.788Z,992.38
2018-07-28T02:50:16.606Z,992.39
2018-07-28T02:51:26.673Z,992.38
2018-07-28T02:52:36.484Z,992.42
2018-07-28T02:53:46.550Z,992.37
2018-07-28T02:54:56.649Z,992.37
2018-07-28T02:56:06.736Z,992.38
2018-07-28T02:57:16.816Z,992.38
2018-07-28T02:58:26.621Z,992.36
2018-07-28T02:59:36.702Z,992.37
2018-07-28T03:00:46.513Z,992.39
2018-07-28T03:01:56.609Z,992.44
2018-07-28T03:35:03.695Z,992.43
2018-07-28T03:36:13.776Z,992.42
2018-07-28T03:37:23.837Z,992.45
2018-07-28T03:38:33.912Z,992.43
2018-07-28T03:39:43.975Z,992.44
2018-07-28T03:40:54.058Z,992.43
2018-07-28T03:42:04.150Z,992.44
2018-07-28T03:43:14.221Z,992.42
2018-07-28T03:44:24.283Z,992.43
2018-07-28T03:45:34.345Z,992.39
2018-07-28T03:46:44.462Z,992.37
2018-07-28T03:47:54.273Z,992.41
2018-07-28T03:49:04.365Z,992.37
2018-07-28T03:50:14.277Z,992.4
2018-07-28T03:51:24.370Z,992.37
2018-07-28T03:52:34.186Z,992.4
2018-07-28T03:53:43.731Z,992.38
2018-07-28T03:54:53.533Z,992.43
2018-07-28T03:56:03.592Z,992.37
2018-07-28T03:57:13.682Z,992.4
2018-07-28T03:58:23.488Z,992.37
2018-07-28T03:59:33.310Z,992.36
2018-07-28T04:00:43.376Z,992.28
2018-07-28T04:01:53.198Z,992.27
2018-07-28T04:03:03.269Z,992.28
2018-07-28T04:04:13.428Z,992.28
2018-07-28T04:05:23.707Z,992.29
2018-07-28T04:06:33.782Z,992.3
2018-07-28T04:07:43.857Z,992.34
2018-07-28T04:08:53.925Z,992.33
2018-07-28T04:10:03.994Z,992.36
2018-07-28T04:11:14.066Z,992.36
2018-07-28T04:12:24.147Z,992.38
2018-07-28T04:13:33.963Z,992.39
2018-07-28T04:14:43.765Z,992.44
2018-07-28T04:15:53.573Z,992.46
2018-07-28T04:17:03.386Z,992.44
2018-07-28T04:18:13.186Z,992.49
2018-07-28T04:19:23.016Z,992.47
2018-07-28T04:20:32.846Z,992.43
2018-07-28T04:21:42.923Z,992.39
2018-07-28T04:22:53.005Z,992.41
2018-07-28T04:24:02.831Z,992.34
2018-07-28T04:25:12.968Z,992.38
2018-07-28T04:26:23.050Z,992.44
2018-07-28T04:27:33.127Z,992.49
2018-07-28T04:28:43.202Z,992.52
2018-07-28T04:29:53.273Z,992.55
2018-07-28T04:31:03.358Z,992.58
2018-07-28T04:32:13.428Z,992.58
2018-07-28T04:33:23.536Z,992.57
2018-07-28T04:34:33.619Z,992.61
2018-07-28T04:35:43.425Z,992.6
2018-07-28T04:36:53.238Z,992.62
2018-07-28T04:38:03.452Z,992.62
2018-07-28T04:39:13.516Z,992.65
2018-07-28T04:40:23.700Z,992.7
2018-07-28T04:41:33.788Z,992.79
2018-07-28T04:42:43.878Z,992.8
2018-07-28T04:43:53.980Z,992.83
2018-07-28T04:45:04.338Z,992.8
2018-07-28T04:46:14.446Z,992.85
2018-07-28T04:47:24.530Z,992.66
2018-07-28T04:48:34.611Z,992.6
2018-07-28T04:49:44.682Z,992.57
2018-07-28T04:50:54.507Z,992.61
2018-07-28T04:52:04.582Z,992.7
2018-07-28T04:53:14.654Z,992.66
2018-07-28T04:54:24.577Z,992.65
2018-07-28T04:55:34.676Z,992.71
2018-07-28T04:56:44.756Z,992.7
2018-07-28T04:57:54.846Z,992.73
2018-07-28T04:59:04.667Z,992.67
2018-07-28T05:00:14.833Z,992.63
2018-07-28T05:01:24.654Z,992.65
2018-07-28T05:02:34.713Z,992.64
2018-07-28T05:03:44.804Z,992.64
2018-07-28T05:04:54.893Z,992.71
2018-07-28T05:06:06.035Z,992.7
2018-07-28T05:07:16.177Z,992.72
2018-07-28T05:08:26.981Z,992.71
2018-07-28T05:09:36.801Z,992.74
2018-07-28T05:10:46.866Z,992.68
2018-07-28T05:11:57.066Z,992.7
2018-07-28T05:13:06.663Z,992.71
2018-07-28T05:14:16.485Z,992.7
2018-07-28T05:15:26.552Z,992.73
2018-07-28T05:16:36.625Z,992.75
2018-07-28T05:17:46.684Z,992.81
2018-07-28T05:18:56.768Z,992.8
2018-07-28T05:20:06.573Z,992.73
2018-07-28T05:21:16.391Z,992.78
2018-07-28T05:22:26.475Z,992.77
2018-07-28T05:23:36.309Z,992.69
2018-07-28T05:24:46.380Z,992.74
2018-07-28T05:25:56.215Z,992.64
2018-07-28T05:27:06.042Z,992.54
2018-07-28T05:28:16.111Z,992.58
2018-07-28T05:29:25.994Z,992.57
2018-07-28T05:30:36.209Z,992.56
2018-07-28T05:31:46.041Z,992.55
2018-07-28T05:32:56.114Z,992.53
2018-07-28T05:34:06.185Z,992.57
2018-07-28T05:35:16.270Z,992.57
2018-07-28T05:36:26.334Z,992.57
2018-07-28T05:37:35.896Z,992.54
2018-07-28T05:38:45.965Z,992.52
2018-07-28T05:39:55.915Z,992.49
2018-07-28T05:41:06.015Z,992.5
2018-07-28T05:42:16.107Z,992.54
2018-07-28T05:43:26.198Z,992.57
2018-07-28T05:44:36.047Z,992.71
2018-07-28T05:45:46.142Z,992.56
2018-07-28T05:46:55.709Z,992.53
2018-07-28T05:48:05.793Z,992.79
2018-07-28T05:49:15.878Z,992.69
2018-07-28T05:50:25.970Z,992.55
2018-07-28T05:51:36.080Z,992.5
2018-07-28T05:52:46.151Z,992.49
2018-07-28T05:53:56.237Z,992.53
2018-07-28T05:55:06.044Z,992.51
2018-07-28T05:56:16.123Z,992.55
2018-07-28T05:57:26.189Z,992.56
2018-07-28T05:58:36.265Z,992.58
2018-07-28T05:59:46.343Z,992.58
2018-07-28T06:00:56.421Z,992.56
2018-07-28T06:02:06.563Z,992.62
2018-07-28T06:03:17.120Z,992.56
2018-07-28T06:04:27.209Z,992.57
2018-07-28T06:05:37.295Z,992.62
2018-07-28T06:06:47.369Z,992.64
2018-07-28T06:07:57.459Z,992.61
2018-07-28T06:09:07.552Z,992.62
2018-07-28T06:10:17.698Z,992.61
2018-07-28T06:11:27.776Z,992.65
2018-07-28T06:12:37.921Z,992.67
2018-07-28T06:13:47.993Z,992.6
2018-07-28T06:14:58.071Z,992.53
2018-07-28T06:16:08.157Z,992.49
2018-07-28T06:17:17.991Z,992.48
2018-07-28T06:18:28.060Z,992.51
2018-07-28T06:19:37.877Z,992.49
2018-07-28T06:20:47.950Z,992.52
2018-07-28T06:21:58.079Z,992.48
2018-07-28T06:23:08.243Z,992.51
2018-07-28T06:24:18.352Z,992.57
2018-07-28T06:25:28.167Z,992.6
2018-07-28T06:26:38.242Z,992.61
2018-07-28T06:27:48.355Z,992.58
2018-07-28T06:28:58.514Z,992.59
2018-07-28T06:30:08.583Z,992.6
2018-07-28T06:31:18.461Z,992.59
2018-07-28T06:32:28.608Z,992.56
2018-07-28T06:33:38.670Z,992.58
2018-07-28T06:34:48.740Z,992.56
2018-07-28T06:35:58.569Z,992.57
2018-07-28T06:37:08.675Z,992.58
2018-07-28T06:38:18.753Z,992.57
2018-07-28T06:39:28.900Z,992.55
2018-07-28T06:40:38.617Z,992.56
2018-07-28T06:41:48.431Z,992.58
2018-07-28T06:42:58.508Z,992.58
2018-07-28T06:44:08.626Z,992.62
2018-07-28T06:45:18.724Z,992.66
2018-07-28T06:46:28.006Z,992.68
2018-07-28T06:47:38.085Z,992.68
2018-07-28T06:48:48.185Z,992.72
2018-07-28T06:49:58.262Z,992.72
2018-07-28T06:51:08.419Z,992.74
2018-07-28T06:52:18.497Z,992.7
2018-07-28T06:53:28.576Z,992.69
2018-07-28T06:54:38.757Z,992.71
2018-07-28T06:55:48.562Z,992.7
2018-07-28T06:56:58.378Z,992.73
2018-07-28T06:58:08.458Z,992.72
2018-07-28T06:59:18.546Z,992.72
2018-07-28T07:00:28.366Z,992.72
2018-07-28T07:01:38.199Z,992.7
2018-07-28T07:02:48.274Z,992.7
2018-07-28T07:03:58.089Z,992.7
2018-07-28T07:05:07.901Z,992.69
2018-07-28T07:06:17.967Z,992.65
2018-07-28T07:07:28.062Z,992.67
2018-07-28T07:08:37.870Z,992.63
2018-07-28T07:09:47.971Z,992.66
2018-07-28T07:10:58.057Z,992.69
2018-07-28T07:12:08.146Z,992.7
2018-07-28T07:13:17.973Z,992.7
2018-07-28T07:14:28.106Z,992.66
2018-07-28T07:15:37.916Z,992.73
2018-07-28T07:16:47.997Z,992.73
2018-07-28T07:17:58.090Z,992.74
2018-07-28T07:19:08.175Z,992.76
2018-07-28T07:20:18.257Z,992.77
2018-07-28T07:21:28.347Z,992.74
2018-07-28T07:22:38.456Z,992.79
2018-07-28T07:23:48.533Z,992.78
2018-07-28T07:24:58.601Z,992.79
2018-07-28T07:26:08.441Z,992.77
2018-07-28T07:27:18.280Z,992.84
2018-07-28T07:28:28.354Z,992.82
2018-07-28T07:29:38.447Z,992.81
2018-07-28T07:30:48.551Z,992.79
2018-07-28T07:31:58.640Z,992.78
2018-07-28T07:33:08.711Z,992.76
2018-07-28T07:34:18.786Z,992.73
2018-07-28T07:35:28.614Z,992.73
2018-07-28T07:36:38.701Z,992.73
2018-07-28T07:37:48.522Z,992.69
2018-07-28T07:38:58.605Z,992.73
2018-07-28T07:40:08.744Z,992.71
2018-07-28T07:41:18.549Z,992.74
2018-07-28T07:42:28.634Z,992.78
2018-07-28T07:43:38.765Z,992.79
2018-07-28T07:44:48.866Z,992.83
2018-07-28T07:45:58.748Z,992.84
2018-07-28T07:47:08.905Z,992.86
2018-07-28T07:48:19.568Z,992.83
2018-07-28T07:49:29.384Z,992.86
2018-07-28T07:50:39.180Z,992.88
2018-07-28T07:51:49.264Z,992.89
2018-07-28T07:52:59.364Z,992.87
2018-07-28T07:54:09.460Z,992.85
2018-07-28T07:55:19.569Z,992.85
2018-07-28T07:56:29.370Z,992.83
2018-07-28T07:57:39.472Z,992.84
2018-07-28T07:58:49.544Z,992.84
2018-07-28T07:59:59.637Z,992.8
2018-07-28T08:01:09.781Z,992.8
2018-07-28T08:02:19.856Z,992.82
2018-07-28T08:03:29.729Z,992.85
2018-07-28T08:04:39.604Z,992.82
2018-07-28T08:05:49.929Z,992.83
2018-07-28T08:07:00.079Z,992.81
2018-07-28T08:08:10.192Z,992.8
2018-07-28T08:09:20.269Z,992.79
2018-07-28T08:10:30.352Z,992.82
2018-07-28T08:11:40.167Z,992.77
2018-07-28T08:12:50.287Z,992.76
2018-07-28T08:14:00.132Z,992.77
2018-07-28T08:15:09.975Z,992.78
2018-07-28T08:16:20.074Z,992.76
2018-07-28T08:17:29.904Z,992.77
2018-07-28T08:18:39.727Z,992.72
2018-07-28T08:19:49.547Z,992.75
2018-07-28T08:20:59.655Z,992.72
2018-07-28T08:22:10.111Z,992.74
2018-07-28T08:23:20.186Z,992.76
2018-07-28T08:24:30.280Z,992.81
2018-07-28T08:25:40.382Z,992.76
2018-07-28T08:26:50.291Z,992.75
2018-07-28T08:28:00.737Z,992.75
2018-07-28T08:29:10.837Z,992.73
2018-07-28T08:30:20.700Z,992.74
2018-07-28T08:31:30.808Z,992.74
2018-07-28T08:32:40.903Z,992.72
2018-07-28T08:33:50.982Z,992.72
2018-07-28T08:35:01.072Z,992.7
2018-07-28T08:36:11.144Z,992.72
2018-07-28T08:37:21.223Z,992.74
2018-07-28T08:38:31.305Z,992.72
2018-07-28T08:39:41.415Z,992.7
2018-07-28T08:40:51.627Z,992.71
2018-07-28T08:42:01.524Z,992.72
2018-07-28T08:43:11.622Z,992.73
2018-07-28T08:44:21.721Z,992.73
2018-07-28T08:45:31.793Z,992.69
2018-07-28T08:46:41.875Z,992.69
2018-07-28T08:47:51.453Z,992.68
2018-07-28T08:49:01.739Z,992.67
2018-07-28T08:50:12.599Z,992.76
2018-07-28T08:51:22.705Z,992.74
2018-07-28T08:52:32.802Z,992.73
2018-07-28T08:53:42.623Z,992.74
2018-07-28T08:54:52.709Z,992.75
2018-07-28T08:56:02.795Z,992.77
2018-07-28T08:57:12.891Z,992.74
2018-07-28T08:58:22.976Z,992.74
2018-07-28T08:59:32.801Z,992.71
2018-07-28T09:00:42.711Z,992.7
2018-07-28T09:01:52.803Z,992.68
2018-07-28T09:03:02.890Z,992.71
2018-07-28T09:04:12.974Z,992.68
2018-07-28T09:05:23.056Z,992.72
2018-07-28T09:06:33.137Z,992.75
2018-07-28T09:07:42.974Z,992.75
2018-07-28T09:08:53.075Z,992.73
2018-07-28T09:10:03.171Z,992.73
2018-07-28T09:11:13.270Z,992.74
2018-07-28T09:12:23.409Z,992.75
2018-07-28T09:13:33.963Z,992.75
2018-07-28T09:14:43.781Z,992.76
2018-07-28T09:15:53.872Z,992.76
2018-07-28T09:17:03.955Z,992.74
2018-07-28T09:18:14.051Z,992.74
2018-07-28T09:19:24.128Z,992.73
2018-07-28T09:20:33.940Z,992.76
2018-07-28T09:21:44.029Z,992.77
2018-07-28T09:22:53.890Z,992.72
2018-07-28T09:24:04.060Z,992.74
2018-07-28T09:25:14.156Z,992.73
2018-07-28T09:26:24.299Z,992.73
2018-07-28T09:27:34.405Z,992.7
2018-07-28T09:28:44.228Z,992.74
2018-07-28T09:29:54.360Z,992.72
2018-07-28T09:31:04.451Z,992.73
2018-07-28T09:32:14.588Z,992.74
2018-07-28T09:33:24.412Z,992.69
2018-07-28T09:34:34.243Z,992.69
2018-07-28T09:35:44.387Z,992.71
2018-07-28T09:36:54.493Z,992.71
2018-07-28T09:38:05.048Z,992.66
2018-07-28T09:39:15.145Z,992.66
2018-07-28T09:40:25.245Z,992.64
2018-07-28T09:41:35.333Z,992.64
2018-07-28T09:42:45.428Z,992.65
2018-07-28T09:43:54.988Z,992.58
2018-07-28T09:45:04.879Z,992.6
2018-07-28T09:46:14.864Z,992.58
2018-07-28T09:47:25.680Z,992.57
2018-07-28T09:48:38.503Z,992.57
2018-07-28T09:49:48.588Z,992.57
2018-07-28T09:50:58.669Z,992.59
2018-07-28T09:52:09.067Z,992.62
2018-07-28T09:53:19.234Z,992.63
2018-07-28T09:54:29.365Z,992.61
2018-07-28T09:55:39.476Z,992.57
2018-07-28T09:56:49.647Z,992.58
2018-07-28T09:57:59.746Z,992.56
2018-07-28T09:59:10.928Z,992.55
2018-07-28T10:00:21.193Z,992.54
2018-07-28T10:01:31.482Z,992.48
2018-07-28T10:02:42.455Z,992.52
2018-07-28T10:03:53.730Z,992.47
2018-07-28T10:05:04.127Z,992.49
2018-07-28T10:06:14.247Z,992.52
2018-07-28T10:07:24.350Z,992.48
2018-07-28T10:08:34.480Z,992.53
2018-07-28T10:09:44.616Z,992.48
2018-07-28T10:10:54.700Z,992.49
2018-07-28T10:12:04.554Z,992.5
2018-07-28T10:13:14.666Z,992.52
2018-07-28T10:14:24.504Z,992.52
2018-07-28T10:15:34.597Z,992.53
2018-07-28T10:16:44.750Z,992.51
2018-07-28T10:17:54.851Z,992.49
2018-07-28T10:19:04.692Z,992.52
2018-07-28T10:20:14.789Z,992.51
2018-07-28T10:21:24.633Z,992.47
2018-07-28T10:22:34.792Z,992.47
2018-07-28T10:23:44.987Z,992.52
2018-07-28T10:24:54.823Z,992.51
2018-07-28T10:26:04.909Z,992.47
2018-07-28T10:27:14.986Z,992.51
2018-07-28T10:28:25.086Z,992.52
2018-07-28T10:29:35.249Z,992.53
2018-07-28T10:30:45.078Z,992.47
2018-07-28T10:31:55.166Z,992.45
2018-07-28T10:33:05.039Z,992.45
2018-07-28T10:34:15.219Z,992.43
2018-07-28T10:35:25.306Z,992.41
2018-07-28T10:36:35.424Z,992.4
2018-07-28T10:37:45.998Z,992.39
2018-07-28T10:38:56.104Z,992.43
2018-07-28T10:40:06.295Z,992.41
2018-07-28T10:41:16.388Z,992.4
2018-07-28T10:42:26.735Z,992.41
2018-07-28T10:43:36.838Z,992.42
2018-07-28T10:44:46.913Z,992.38
2018-07-28T10:45:56.996Z,992.42
2018-07-28T10:47:06.850Z,992.35
2018-07-28T10:48:16.917Z,992.4
2018-07-28T10:49:27.002Z,992.34
2018-07-28T10:50:36.824Z,992.38
2018-07-28T10:51:46.967Z,992.39
2018-07-28T10:52:57.462Z,992.42
2018-07-28T10:54:07.570Z,992.41
2018-07-28T10:55:17.650Z,992.41
2018-07-28T10:56:27.577Z,992.44
2018-07-28T10:57:37.709Z,992.42
2018-07-28T10:58:47.787Z,992.38
2018-07-28T10:59:57.939Z,992.33
2018-07-28T11:01:08.083Z,992.37
2018-07-28T11:02:18.173Z,992.36
2018-07-28T11:03:28.268Z,992.3
2018-07-28T11:04:38.116Z,992.28
2018-07-28T11:05:48.218Z,992.24
2018-07-28T11:06:58.064Z,992.3
2018-07-28T11:08:08.150Z,992.24
2018-07-28T11:09:18.038Z,992.29
2018-07-28T11:10:27.871Z,992.28
2018-07-28T11:11:37.702Z,992.21
2018-07-28T11:12:47.804Z,992.21
2018-07-28T11:13:57.900Z,992.21
2018-07-28T11:15:07.725Z,992.23
2018-07-28T11:16:17.563Z,992.19
2018-07-28T11:17:27.667Z,992.2
2018-07-28T11:18:37.774Z,992.16
2018-07-28T11:19:48.283Z,992.17
2018-07-28T11:20:58.371Z,992.12
2018-07-28T11:22:08.477Z,992.15
2018-07-28T11:23:18.553Z,992.08
2018-07-28T11:24:28.794Z,992.08
2018-07-28T11:25:38.617Z,992.05
2018-07-28T11:26:48.793Z,992.07
2018-07-28T11:27:58.884Z,992.05
2018-07-28T11:29:08.983Z,992.08
2018-07-28T11:30:18.023Z,992.03
2018-07-28T11:31:27.866Z,992.05
2018-07-28T11:32:38.168Z,991.98
2018-07-28T11:33:48.256Z,992.05
2018-07-28T11:34:58.350Z,992.02
2018-07-28T11:36:08.184Z,992.03
2018-07-28T11:37:18.309Z,992.02
2018-07-28T11:38:28.442Z,992.04
2018-07-28T11:39:38.566Z,992.02
2018-07-28T11:40:48.661Z,992.01
2018-07-28T11:41:58.483Z,992.05
2018-07-28T11:43:08.327Z,992
2018-07-28T11:44:18.470Z,992.05
2018-07-28T11:45:28.290Z,992.02
2018-07-28T11:46:38.354Z,992.02
2018-07-28T11:47:48.449Z,992
2018-07-28T11:48:58.573Z,991.99
2018-07-28T11:50:08.786Z,992.02
2018-07-28T11:51:18.453Z,991.99
2018-07-28T11:52:28.522Z,992.01
2018-07-28T11:53:38.603Z,992
2018-07-28T11:54:48.710Z,992.02
2018-07-28T11:55:58.565Z,992
2018-07-28T11:57:08.674Z,991.96
2018-07-28T11:58:18.777Z,991.99
2018-07-28T11:59:29.678Z,991.97
2018-07-28T12:00:39.523Z,991.96
2018-07-28T12:01:49.406Z,991.93
2018-07-28T12:02:59.574Z,991.93
2018-07-28T12:04:09.673Z,991.94
2018-07-28T12:05:19.507Z,991.9
2018-07-28T12:06:29.848Z,991.89
2018-07-28T12:07:39.992Z,991.89
2018-07-28T12:08:50.341Z,991.88
2018-07-28T12:10:00.673Z,991.85
2018-07-28T12:11:10.510Z,991.87
2018-07-28T12:12:20.651Z,991.86
2018-07-28T12:13:30.608Z,991.91
2018-07-28T12:14:40.173Z,991.92
2018-07-28T12:15:50.281Z,991.89
2018-07-28T12:17:00.378Z,991.88
2018-07-28T12:18:10.240Z,991.91
2018-07-28T12:19:20.793Z,991.94
2018-07-28T12:20:31.128Z,991.93
2018-07-28T12:21:41.214Z,991.99
2018-07-28T12:22:51.319Z,991.93
2018-07-28T12:24:01.485Z,991.94
2018-07-28T12:25:11.914Z,991.94
2018-07-28T12:26:22.013Z,991.93
2018-07-28T12:27:32.114Z,991.95
2018-07-28T12:28:42.211Z,991.92
2018-07-28T12:29:52.047Z,991.92
2018-07-28T12:31:01.873Z,991.9
2018-07-28T12:32:11.962Z,991.89
2018-07-28T12:33:22.119Z,991.86
2018-07-28T12:34:32.008Z,991.88
2018-07-28T12:35:42.371Z,991.88
2018-07-28T12:36:52.465Z,991.86
2018-07-28T12:38:02.292Z,991.9
2018-07-28T12:39:12.406Z,991.86
2018-07-28T12:40:22.246Z,991.9
2018-07-28T12:41:32.358Z,991.91
2018-07-28T12:42:42.174Z,991.89
2018-07-28T12:43:52.278Z,991.86
2018-07-28T12:45:02.422Z,991.82
2018-07-28T12:46:12.521Z,991.86
2018-07-28T12:47:22.352Z,991.85
2018-07-28T12:48:32.439Z,991.87
2018-07-28T12:49:42.545Z,991.86
2018-07-28T12:50:52.682Z,991.89
2018-07-28T12:52:02.784Z,991.84
2018-07-28T12:53:12.875Z,991.83
2018-07-28T12:54:22.950Z,991.77
2018-07-28T12:55:32.824Z,991.74
2018-07-28T12:56:43.292Z,991.74
2018-07-28T12:57:53.390Z,991.75
2018-07-28T12:59:03.487Z,991.74
2018-07-28T13:00:13.584Z,991.69
2018-07-28T13:01:23.682Z,991.68
2018-07-28T13:02:33.823Z,991.67
2018-07-28T13:03:43.936Z,991.62
2018-07-28T13:04:54.183Z,991.6
2018-07-28T13:06:04.281Z,991.59
2018-07-28T13:07:14.394Z,991.53
2018-07-28T13:08:24.530Z,991.53
2018-07-28T13:09:34.374Z,991.63
2018-07-28T13:10:44.559Z,991.62
2018-07-28T13:11:54.654Z,991.61
2018-07-28T13:13:04.772Z,991.63
2018-07-28T13:14:14.888Z,991.64
2018-07-28T13:15:24.988Z,991.65
2018-07-28T13:16:35.082Z,991.63
2018-07-28T13:17:45.241Z,991.67
2018-07-28T13:18:55.617Z,991.62
2018-07-28T13:20:05.545Z,991.66
2018-07-28T13:21:15.653Z,991.67
2018-07-28T13:22:25.754Z,991.71
2018-07-28T13:23:35.882Z,991.71
2018-07-28T13:24:46.278Z,991.62
2018-07-28T13:25:56.369Z,991.67
2018-07-28T13:27:06.207Z,991.64
2018-07-28T13:28:16.313Z,991.67
2018-07-28T13:29:26.430Z,991.7
2018-07-28T13:30:36.558Z,991.73
2018-07-28T13:31:46.453Z,991.68
2018-07-28T13:32:56.572Z,991.66
2018-07-28T13:34:06.684Z,991.7
2018-07-28T13:35:16.798Z,991.62
2018-07-28T13:36:27.098Z,991.66
2018-07-28T13:37:36.980Z,991.61
2018-07-28T13:38:47.103Z,991.62
2018-07-28T13:39:56.940Z,991.58
2018-07-28T13:41:07.075Z,991.59
2018-07-28T13:42:17.065Z,991.65
2018-07-28T13:43:27.269Z,991.63
2018-07-28T13:44:37.393Z,991.62
2018-07-28T13:45:47.244Z,991.61
2018-07-28T13:46:57.366Z,991.59
2018-07-28T13:48:07.477Z,991.61
2018-07-28T13:49:17.603Z,991.58
2018-07-28T13:50:27.700Z,991.56
2018-07-28T13:51:37.278Z,991.56
2018-07-28T13:52:47.383Z,991.55
2018-07-28T13:53:57.493Z,991.55
2018-07-28T13:55:07.608Z,991.52
2018-07-28T13:56:17.702Z,991.53
2018-07-28T13:57:27.806Z,991.55
2018-07-28T13:58:37.916Z,991.57
2018-07-28T13:59:48.053Z,991.55
2018-07-28T14:00:57.896Z,991.54
2018-07-28T14:02:08.003Z,991.56
2018-07-28T14:03:17.841Z,991.53
2018-07-28T14:04:27.673Z,991.58
2018-07-28T14:05:37.529Z,991.59
2018-07-28T14:06:47.688Z,991.69
2018-07-28T14:07:57.795Z,991.69
2018-07-28T14:09:07.895Z,991.73
2018-07-28T14:10:17.992Z,991.78
2018-07-28T14:11:27.810Z,991.75
2018-07-28T14:12:37.981Z,991.76
2018-07-28T14:13:48.091Z,991.72
2018-07-28T14:14:58.216Z,991.72
2018-07-28T14:16:08.775Z,991.7
2018-07-28T14:17:18.884Z,991.71
2018-07-28T14:18:29.173Z,991.72
2018-07-28T14:19:40.096Z,991.68
2018-07-28T14:20:49.672Z,991.71
2018-07-28T14:21:59.762Z,991.73
2018-07-28T14:23:09.865Z,991.75
2018-07-28T14:24:19.992Z,991.77
2018-07-28T14:25:30.094Z,991.79
2018-07-28T14:26:40.195Z,991.8
2018-07-28T14:27:50.050Z,991.76
2018-07-28T14:29:00.254Z,991.75
2018-07-28T14:30:09.824Z,991.78
2018-07-28T14:31:19.942Z,991.75
2018-07-28T14:32:30.256Z,991.75
2018-07-28T14:33:39.835Z,991.77
2018-07-28T14:34:49.658Z,991.74
2018-07-28T14:35:59.737Z,991.75
2018-07-28T14:37:09.847Z,991.72
2018-07-28T14:38:19.920Z,991.78
2018-07-28T14:39:30.051Z,991.76
2018-07-28T14:40:39.900Z,991.73
2018-07-28T14:41:49.989Z,991.7
2018-07-28T14:42:59.798Z,991.7
2018-07-28T14:44:09.901Z,991.67
2018-07-28T14:45:19.737Z,991.7
2018-07-28T14:46:29.842Z,991.68
2018-07-28T14:47:39.939Z,991.68
2018-07-28T14:48:49.756Z,991.7
2018-07-28T14:49:59.579Z,991.71
2018-07-28T14:51:09.673Z,991.67
2018-07-28T14:52:19.745Z,991.72
2018-07-28T14:53:29.573Z,991.62
2018-07-28T14:54:39.666Z,991.63
2018-07-28T14:55:49.485Z,991.67
2018-07-28T14:56:59.578Z,991.65
2018-07-28T14:58:09.443Z,991.65
2018-07-28T14:59:19.542Z,991.65
2018-07-28T15:00:29.155Z,991.62
2018-07-28T15:01:39.258Z,991.66
2018-07-28T15:02:49.116Z,991.63
2018-07-28T15:03:59.232Z,991.62
2018-07-28T15:05:09.061Z,991.61
2018-07-28T15:06:19.197Z,991.64
2018-07-28T15:07:29.425Z,991.55
2018-07-28T15:08:39.551Z,991.54